Time;durP1;ratioP1;P1;durP2;ratioP2;P2;SDS_P1;SDS_P2;PMS_P1;PMS_P2;Temp;Humidity;BMP_temperature;BMP_pressure;BME280_temperature;BME280_humidity;BME280_pressure;Samples;Min_cycle;Max_cycle;Signal;HPM_P1;HPM_P2
2021/04/13 00:02:38;;;;;;;7.03;2.13;;;3.20;79.10;;;;;;4932490;28;20543;-68
2021/04/13 00:05:19;;;;;;;6.90;2.30;;;3.20;78.90;;;;;;4933036;28;20063;-67
2021/04/13 00:07:48;;;;;;;6.83;2.27;;;3.10;78.80;;;;;;4932585;28;20040;-62
2021/04/13 00:10:37;;;;;;;6.57;2.40;;;3.10;78.70;;;;;;4932354;28;20048;-64
2021/04/13 00:13:04;;;;;;;8.40;2.50;;;3.10;78.80;;;;;;4932550;28;20048;-62
2021/04/13 00:15:38;;;;;;;8.10;2.50;;;3.00;78.80;;;;;;4932901;28;20492;-63
2021/04/13 00:18:05;;;;;;;6.63;2.63;;;3.00;78.70;;;;;;4931379;28;20044;-64
2021/04/13 00:20:45;;;;;;;7.57;2.50;;;3.00;78.90;;;;;;4932477;28;20552;-62
2021/04/13 00:23:12;;;;;;;8.13;2.75;;;2.90;79.20;;;;;;4932180;28;20032;-62
2021/04/13 00:26:00;;;;;;;8.43;2.93;;;2.90;79.50;;;;;;4915595;29;20119;-64
2021/04/13 00:28:54;;;;;;;10.27;3.03;;;2.90;79.50;;;;;;4932282;28;20040;-63
2021/04/13 00:31:41;;;;;;;12.77;3.00;;;2.90;79.30;;;;;;4933158;28;20054;-64
2021/04/13 00:34:22;;;;;;;9.17;2.73;;;2.80;79.60;;;;;;4931356;28;20115;-64
2021/04/13 00:36:48;;;;;;;;;;;2.80;80.00;;;;;;4932757;28;20054;-64
2021/04/13 00:39:28;;;;;;;7.60;3.07;;;2.80;80.10;;;;;;4931398;28;19919;-63
2021/04/13 00:41:58;;;;;;;7.87;3.50;;;2.80;80.00;;;;;;4931253;28;20051;-64
2021/04/13 00:44:25;;;;;;;6.82;3.03;;;2.80;79.90;;;;;;4915889;29;20051;-63
2021/04/13 00:47:16;;;;;;;8.73;3.07;;;2.80;80.10;;;;;;4930732;28;20044;-64
2021/04/13 00:49:48;;;;;;;10.10;3.13;;;2.70;80.10;;;;;;4932395;28;20427;-63
2021/04/13 00:52:18;;;;;;;6.37;2.90;;;2.70;80.10;;;;;;4930392;29;20044;-62
2021/04/13 00:54:50;;;;;;;11.10;3.23;;;2.70;80.10;;;;;;4932249;28;20237;-62
2021/04/13 00:57:21;;;;;;;10.07;3.10;;;2.60;80.20;;;;;;4931735;28;20056;-62
2021/04/13 00:59:48;;;;;;;8.40;3.13;;;2.60;80.40;;;;;;4930813;29;20040;-63
2021/04/13 01:02:21;;;;;;;8.43;2.93;;;2.60;80.60;;;;;;4929746;28;20051;-64
2021/04/13 01:05:07;;;;;;;8.93;3.37;;;2.60;80.80;;;;;;4932193;28;20054;-62
2021/04/13 01:08:13;;;;;;;9.43;3.10;;;2.60;81.00;;;;;;4931687;28;20040;-62
2021/04/13 01:10:38;;;;;;;11.50;2.90;;;2.50;81.00;;;;;;4931057;28;20054;-63
2021/04/13 01:13:11;;;;;;;8.30;3.27;;;2.50;80.90;;;;;;4927964;28;20039;-62
2021/04/13 01:15:39;;;;;;;9.33;3.27;;;2.50;80.90;;;;;;4930751;28;20043;-63
2021/04/13 01:18:08;;;;;;;9.80;2.83;;;2.50;81.10;;;;;;4931813;28;20086;-63
2021/04/13 01:20:59;;;;;;;9.73;3.17;;;2.40;81.20;;;;;;4929671;28;20376;-63
2021/04/13 01:23:35;;;;;;;;;;;2.40;81.40;;;;;;4932460;28;20055;-64
2021/04/13 01:26:06;;;;;;;10.37;3.37;;;2.40;81.50;;;;;;4930414;28;19938;-63
2021/04/13 01:28:36;;;;;;;6.30;3.00;;;2.40;81.60;;;;;;4930538;28;20039;-63
2021/04/13 01:31:09;;;;;;;8.60;3.10;;;2.40;81.60;;;;;;4930329;28;20040;-63
2021/04/13 01:36:20;;;;;;;9.40;3.20;;;2.30;81.80;;;;;;4931121;28;20036;-63
2021/04/13 01:39:06;;;;;;;8.47;3.53;;;2.30;82.10;;;;;;4931219;28;20035;-66
2021/04/13 01:41:46;;;;;;;9.60;3.73;;;2.30;82.40;;;;;;4930744;28;20047;-66
2021/04/13 01:44:14;;;;;;;8.80;3.47;;;2.30;82.30;;;;;;4931276;28;20043;-70
2021/04/13 01:46:41;;;;;;;10.43;3.50;;;2.30;82.30;;;;;;4914113;28;20357;-66
2021/04/13 01:49:08;;;;;;;9.67;3.70;;;2.30;82.70;;;;;;4929990;28;20412;-66
2021/04/13 01:51:34;;;;;;;9.07;3.40;;;2.30;82.80;;;;;;4929218;28;20121;-66
2021/04/13 01:54:01;;;;;;;9.63;3.60;;;2.30;82.60;;;;;;4930143;28;20032;-67
2021/04/13 01:56:39;;;;;;;10.53;3.67;;;2.30;83.30;;;;;;4930981;28;20051;-66
2021/04/13 01:59:36;;;;;;;9.40;3.73;;;2.20;82.70;;;;;;4931200;28;20078;-66
2021/04/13 02:02:10;;;;;;;9.50;3.93;;;2.20;82.80;;;;;;4959478;28;20036;-66
2021/04/13 02:04:50;;;;;;;11.00;4.17;;;2.20;82.90;;;;;;4929639;28;20517;-67
2021/04/13 02:07:46;;;;;;;11.07;4.28;;;2.20;83.30;;;;;;4930811;28;20040;-66
2021/04/13 02:10:38;;;;;;;10.67;4.10;;;2.10;83.70;;;;;;4929344;28;20032;-65
2021/04/13 02:13:23;;;;;;;11.83;4.13;;;2.20;83.10;;;;;;4930766;28;20074;-67
2021/04/13 02:16:05;;;;;;;11.50;4.33;;;2.10;83.40;;;;;;4930476;28;20496;-67
2021/04/13 02:18:37;;;;;;;12.93;4.53;;;2.10;83.80;;;;;;4931882;28;20096;-66
2021/04/13 02:21:22;;;;;;;11.70;4.77;;;2.10;83.70;;;;;;4930396;28;20488;-68
2021/04/13 02:23:53;;;;;;;12.73;4.53;;;2.10;83.80;;;;;;4929872;28;20038;-66
2021/04/13 02:26:20;;;;;;;11.73;5.17;;;2.10;83.90;;;;;;4931126;28;20135;-67
2021/04/13 02:28:48;;;;;;;13.17;4.70;;;2.10;84.10;;;;;;4930567;28;20032;-66
2021/04/13 02:31:36;;;;;;;10.43;4.70;;;2.10;84.20;;;;;;4930418;28;20496;-65
2021/04/13 02:34:09;;;;;;;12.50;4.83;;;2.10;84.30;;;;;;4930566;28;20127;-66
2021/04/13 02:36:35;;;;;;;10.00;4.90;;;2.00;84.30;;;;;;4930485;28;20047;-66
2021/04/13 02:39:04;;;;;;;11.63;4.67;;;2.00;84.50;;;;;;4930346;28;20376;-66
2021/04/13 02:41:41;;;;;;;10.37;4.47;;;2.10;84.70;;;;;;4928924;28;20067;-67
2021/04/13 02:44:14;;;;;;;13.70;4.83;;;2.10;84.70;;;;;;4930431;28;20060;-65
2021/04/13 02:46:40;;;;;;;14.03;4.87;;;2.10;85.00;;;;;;4929604;28;20054;-66
2021/04/13 02:49:12;;;;;;;12.40;4.80;;;2.10;85.10;;;;;;4930620;28;20098;-67
2021/04/13 02:51:54;;;;;;;15.97;5.10;;;2.10;85.40;;;;;;4929886;28;20135;-67
2021/04/13 02:54:24;;;;;;;15.07;5.10;;;2.10;85.40;;;;;;4930303;28;20035;-67
2021/04/13 02:56:54;;;;;;;13.38;4.53;;;2.10;85.60;;;;;;4929532;28;20131;-67
2021/04/13 02:59:24;;;;;;;13.50;4.63;;;2.10;85.50;;;;;;4928935;28;20074;-67
2021/04/13 03:01:50;;;;;;;11.67;4.20;;;2.10;85.40;;;;;;4928749;28;20040;-67
2021/04/13 03:04:17;;;;;;;9.37;4.40;;;2.10;85.40;;;;;;4930199;28;20510;-66
2021/04/13 03:06:47;;;;;;;9.87;4.30;;;2.10;85.60;;;;;;4929193;28;20042;-68
2021/04/13 03:09:15;;;;;;;9.52;3.95;;;2.10;85.80;;;;;;4930018;28;20048;-67
2021/04/13 03:12:00;;;;;;;10.53;4.17;;;2.10;85.80;;;;;;4928352;28;20063;-68
2021/04/13 03:14:26;;;;;;;8.60;3.63;;;2.00;85.70;;;;;;4930558;28;20097;-68
2021/04/13 03:16:56;;;;;;;9.70;4.03;;;2.00;85.80;;;;;;4928755;28;20415;-62
2021/04/13 03:19:27;;;;;;;13.32;4.18;;;2.00;86.10;;;;;;4929231;28;20126;-63
2021/04/13 03:22:00;;;;;;;10.35;4.72;;;2.00;86.20;;;;;;4929561;28;20087;-64
2021/04/13 03:24:31;;;;;;;8.60;3.83;;;2.00;86.40;;;;;;4930390;28;20054;-62
2021/04/13 03:27:01;;;;;;;10.93;4.07;;;2.00;86.40;;;;;;4931187;28;20048;-62
2021/04/13 03:29:30;;;;;;;10.43;4.30;;;2.00;86.50;;;;;;4933523;28;20036;-63
2021/04/13 03:31:58;;;;;;;10.67;4.13;;;2.00;86.30;;;;;;4915307;28;20051;-63
2021/04/13 03:34:24;;;;;;;9.97;4.20;;;2.00;86.40;;;;;;4933493;28;20048;-62
2021/04/13 03:36:53;;;;;;;12.63;4.90;;;2.00;86.90;;;;;;4933400;28;20090;-62
2021/04/13 03:39:30;;;;;;;10.70;4.37;;;2.10;87.30;;;;;;4933136;28;20039;-64
2021/04/13 03:41:57;;;;;;;10.20;4.57;;;2.10;87.10;;;;;;4932368;28;20125;-63
2021/04/13 03:44:24;;;;;;;14.37;5.00;;;2.10;87.10;;;;;;4932711;28;20051;-64
2021/04/13 03:46:50;;;;;;;13.57;5.57;;;2.10;86.90;;;;;;4932101;28;20051;-62
2021/04/13 03:49:21;;;;;;;13.93;4.57;;;2.10;86.80;;;;;;4932646;28;20109;-63
2021/04/13 03:51:52;;;;;;;10.40;4.87;;;2.00;86.70;;;;;;4931376;28;20535;-62
2021/04/13 03:54:27;;;;;;;11.35;5.00;;;2.00;86.70;;;;;;4932826;28;20051;-64
2021/04/13 03:56:53;;;;;;;10.43;5.40;;;2.00;86.70;;;;;;4932977;28;20412;-62
2021/04/13 03:59:22;;;;;;;15.17;5.47;;;2.00;86.60;;;;;;4932461;28;20039;-62
2021/04/13 04:01:50;;;;;;;16.57;5.90;;;1.90;86.60;;;;;;4932699;28;20473;-62
2021/04/13 04:04:37;;;;;;;13.63;5.33;;;1.90;86.50;;;;;;4933320;28;20063;-62
2021/04/13 04:07:34;;;;;;;11.67;5.37;;;1.90;86.70;;;;;;4932815;28;20040;-62
2021/04/13 04:10:00;;;;;;;13.20;6.23;;;1.80;86.70;;;;;;4932446;28;20035;-63
2021/04/13 04:12:31;;;;;;;13.10;6.20;;;1.80;87.30;;;;;;4932691;28;20050;-62
2021/04/13 04:15:06;;;;;;;16.43;6.30;;;1.80;88.00;;;;;;4930943;28;20044;-62
2021/04/13 04:17:37;;;;;;;14.70;6.33;;;1.90;88.30;;;;;;4932854;28;20044;-63
2021/04/13 04:20:09;;;;;;;12.47;5.90;;;2.00;88.30;;;;;;4915604;28;20496;-62
2021/04/13 04:22:54;;;;;;;13.27;6.17;;;2.00;87.80;;;;;;4932714;28;20492;-63
2021/04/13 04:25:29;;;;;;;19.87;6.33;;;2.10;87.50;;;;;;4932714;28;20452;-65
2021/04/13 04:27:57;;;;;;;17.03;6.77;;;2.00;87.60;;;;;;4931528;28;20570;-63
2021/04/13 04:30:29;;;;;;;13.87;6.60;;;2.00;88.00;;;;;;4931810;28;20035;-62
2021/04/13 04:32:58;;;;;;;17.33;6.33;;;2.10;88.40;;;;;;4931915;28;20043;-63
2021/04/13 04:35:43;;;;;;;14.40;6.00;;;2.20;88.60;;;;;;4931541;28;20543;-63
2021/04/13 04:38:24;;;;;;;13.37;6.43;;;2.20;88.50;;;;;;4929988;28;20116;-63
2021/04/13 04:40:49;;;;;;;15.10;5.50;;;2.30;88.70;;;;;;4931081;28;20450;-62
2021/04/13 04:43:17;;;;;;;13.47;5.40;;;2.40;88.90;;;;;;4931162;28;20496;-62
2021/04/13 04:45:43;;;;;;;13.13;5.50;;;2.50;89.20;;;;;;4931964;28;20063;-62
2021/04/13 04:48:34;;;;;;;13.27;5.40;;;2.60;89.20;;;;;;4932404;28;20047;-62
2021/04/13 04:51:01;;;;;;;;;;;2.70;89.50;;;;;;4933035;28;20508;-62
2021/04/13 04:53:29;;;;;;;10.77;4.47;;;2.80;88.70;;;;;;4931499;28;20290;-65
2021/04/13 04:55:56;;;;;;;11.20;4.60;;;2.70;88.10;;;;;;4931891;28;20122;-62
2021/04/13 04:58:23;;;;;;;13.27;4.80;;;2.70;88.20;;;;;;4931012;28;20359;-64
2021/04/13 05:00:50;;;;;;;12.27;4.97;;;2.70;88.70;;;;;;4931225;28;20039;-63
2021/04/13 05:03:17;;;;;;;9.60;4.33;;;2.80;89.30;;;;;;4931978;28;20047;-63
2021/04/13 05:05:42;;;;;;;9.90;4.23;;;3.00;89.70;;;;;;4931696;28;20046;-62
2021/04/13 05:08:09;;;;;;;11.40;4.57;;;3.00;89.20;;;;;;4930231;28;20032;-63
2021/04/13 05:10:35;;;;;;;13.53;4.67;;;3.10;88.60;;;;;;4931663;28;20506;-62
2021/04/13 05:13:00;;;;;;;14.33;5.00;;;3.00;88.50;;;;;;4931965;28;20051;-63
2021/04/13 05:15:26;;;;;;;14.27;4.87;;;3.10;88.60;;;;;;4929983;28;20032;-62
2021/04/13 05:17:52;;;;;;;12.73;4.70;;;3.10;88.50;;;;;;4932300;28;20040;-64
2021/04/13 05:20:18;;;;;;;10.90;5.03;;;3.10;88.60;;;;;;4936594;28;20454;-64
2021/04/13 05:22:44;;;;;;;13.03;5.33;;;3.10;88.40;;;;;;4950409;28;20040;-63
2021/04/13 05:25:11;;;;;;;12.03;4.97;;;3.10;88.30;;;;;;4951057;28;20089;-62
2021/04/13 05:27:37;;;;;;;14.47;5.33;;;3.10;88.00;;;;;;4950363;28;20059;-62
2021/04/13 05:30:05;;;;;;;11.90;5.17;;;3.00;87.80;;;;;;4950583;28;20089;-62
2021/04/13 05:32:30;;;;;;;12.40;5.17;;;3.00;88.30;;;;;;4947649;28;20469;-63
2021/04/13 05:34:56;;;;;;;10.27;5.73;;;3.20;90.20;;;;;;4949160;28;20043;-64
2021/04/13 05:37:23;;;;;;;13.23;6.80;;;3.50;90.30;;;;;;4942849;28;20097;-62
2021/04/13 05:39:49;;;;;;;11.30;6.13;;;4.00;91.00;;;;;;4949181;28;20039;-62
2021/04/13 05:42:23;;;;;;;10.67;5.97;;;4.60;91.00;;;;;;4950290;28;20039;-63
2021/04/13 05:44:50;;;;;;;10.70;6.23;;;4.90;90.00;;;;;;4950481;28;20055;-63
2021/04/13 05:47:17;;;;;;;10.73;5.77;;;5.10;90.00;;;;;;4949365;29;20043;-62
2021/04/13 05:49:43;;;;;;;11.83;6.17;;;5.30;88.80;;;;;;4949688;28;20134;-63
2021/04/13 05:52:08;;;;;;;12.87;6.60;;;5.20;87.20;;;;;;4948043;28;20130;-67
2021/04/13 05:54:34;;;;;;;12.40;6.23;;;5.10;87.20;;;;;;4950732;28;20043;-65
2021/04/13 05:57:00;;;;;;;12.67;6.00;;;5.10;87.00;;;;;;4950514;28;20492;-63
2021/04/13 05:59:28;;;;;;;9.23;5.00;;;5.10;88.00;;;;;;4950507;28;20059;-63
2021/04/13 06:01:55;;;;;;;10.43;4.20;;;5.20;88.30;;;;;;4949279;28;20041;-63
2021/04/13 06:04:21;;;;;;;11.50;3.60;;;5.50;90.10;;;;;;4948862;28;20046;-63
2021/04/13 06:06:47;;;;;;;9.73;3.57;;;6.40;91.20;;;;;;4947879;28;20043;-62
2021/04/13 06:09:12;;;;;;;8.27;3.20;;;6.80;87.70;;;;;;4947978;28;20046;-62
2021/04/13 06:11:38;;;;;;;10.03;3.47;;;6.70;85.00;;;;;;4946631;28;20035;-62
2021/04/13 06:14:04;;;;;;;10.83;3.60;;;6.50;84.30;;;;;;4947676;29;20066;-62
2021/04/13 06:16:35;;;;;;;11.30;3.17;;;6.50;85.80;;;;;;4933718;28;20064;-62
2021/04/13 06:19:01;;;;;;;;;;;6.40;84.50;;;;;;4928075;28;20547;-64
2021/04/13 06:21:27;;;;;;;10.87;3.20;;;6.30;83.30;;;;;;4925992;29;20052;-62
2021/04/13 06:23:52;;;;;;;7.63;2.83;;;6.10;82.80;;;;;;4929557;29;20098;-62
2021/04/13 06:26:18;;;;;;;8.63;3.03;;;5.90;82.80;;;;;;4928796;29;20134;-62
2021/04/13 06:28:44;;;;;;;9.97;2.87;;;5.80;83.00;;;;;;4928787;29;20044;-62
2021/04/13 06:31:09;;;;;;;9.67;3.17;;;5.70;83.10;;;;;;4927988;28;20434;-62
2021/04/13 06:33:35;;;;;;;8.70;2.70;;;5.70;83.20;;;;;;4928474;28;20102;-62
2021/04/13 06:36:02;;;;;;;8.43;1.87;;;6.20;87.60;;;;;;4929302;28;20052;-62
2021/04/13 06:38:29;;;;;;;7.10;2.20;;;7.50;89.90;;;;;;4929629;29;20492;-62
2021/04/13 06:41:25;;;;;;;8.60;2.30;;;7.90;82.60;;;;;;4926914;29;20062;-63
2021/04/13 06:43:53;;;;;;;8.70;2.37;;;7.60;79.60;;;;;;4928914;29;20040;-63
2021/04/13 06:46:25;;;;;;;11.33;2.30;;;7.20;79.80;;;;;;4929465;29;21012;-62
2021/04/13 06:49:15;;;;;;;9.17;2.40;;;7.10;80.80;;;;;;4929485;28;20032;-62
2021/04/13 06:52:19;;;;;;;9.47;2.00;;;7.40;83.00;;;;;;4927228;29;20040;-63
2021/04/13 06:55:14;;;;;;;11.13;2.30;;;8.50;85.10;;;;;;4929465;29;20032;-63
2021/04/13 06:58:21;;;;;;;10.53;2.40;;;8.60;79.80;;;;;;4928880;29;20071;-62
2021/04/13 07:00:50;;;;;;;8.80;2.07;;;8.60;79.10;;;;;;4946213;28;20418;-64
2021/04/13 07:03:23;;;;;;;9.00;2.08;;;8.80;80.10;;;;;;4932030;28;20120;-62
2021/04/13 07:06:11;;;;;;;10.35;2.00;;;9.50;82.60;;;;;;4929355;28;20493;-62
2021/04/13 07:08:49;;;;;;;8.65;2.00;;;10.30;80.00;;;;;;4929424;28;20059;-62
2021/04/13 07:11:38;;;;;;;6.63;1.65;;;10.70;78.20;;;;;;4930244;28;20044;-64
2021/04/13 07:14:08;;;;;;;7.32;1.85;;;11.80;78.40;;;;;;4932039;28;20079;-64
2021/04/13 07:17:07;;;;;;;5.03;1.48;;;13.10;79.80;;;;;;4930778;28;20439;-63
2021/04/13 07:19:41;;;;;;;5.50;1.35;;;14.80;77.60;;;;;;4929287;28;20123;-64
2021/04/13 07:22:32;;;;;;;6.18;1.38;;;15.40;68.90;;;;;;4931783;28;20115;-64
2021/04/13 07:25:07;;;;;;;6.38;1.75;;;15.60;69.80;;;;;;4931958;28;20520;-71
2021/04/13 07:27:41;;;;;;;6.60;1.70;;;16.20;65.30;;;;;;4932037;28;20036;-64
2021/04/13 07:30:34;;;;;;;7.20;1.40;;;15.70;60.60;;;;;;4930046;28;20098;-64
2021/04/13 07:33:02;;;;;;;6.80;1.77;;;14.90;60.80;;;;;;4932662;28;20072;-65
2021/04/13 07:35:33;;;;;;;6.82;1.58;;;14.70;61.00;;;;;;4932931;28;20050;-64
2021/04/13 07:38:04;;;;;;;5.97;1.23;;;15.30;62.30;;;;;;4930833;29;20137;-64
2021/04/13 07:40:36;;;;;;;6.40;1.50;;;16.70;65.30;;;;;;4930887;28;20040;-63
2021/04/13 07:43:15;;;;;;;5.00;1.42;;;18.00;59.60;;;;;;4930097;29;20067;-64
2021/04/13 07:45:59;;;;;;;3.90;1.30;;;18.70;59.30;;;;;;4930147;28;20447;-63
2021/04/13 07:48:39;;;;;;;7.43;1.60;;;18.30;51.80;;;;;;4930427;28;20055;-64
2021/04/13 07:51:17;;;;;;;9.05;1.80;;;16.70;52.30;;;;;;4930801;28;20028;-64
2021/04/13 07:53:46;;;;;;;5.72;1.40;;;15.80;53.20;;;;;;4931652;28;20061;-64
2021/04/13 07:56:27;;;;;;;6.70;1.80;;;16.10;54.90;;;;;;4931446;28;20504;-65
2021/04/13 07:59:33;;;;;;;7.40;1.50;;;16.40;54.70;;;;;;4931114;28;20043;-65
2021/04/13 08:02:03;;;;;;;7.32;1.58;;;17.50;52.90;;;;;;4931299;28;20054;-64
2021/04/13 08:04:30;;;;;;;9.13;1.57;;;16.70;49.80;;;;;;4932826;28;20106;-63
2021/04/13 08:07:22;;;;;;;6.07;1.60;;;16.70;52.60;;;;;;4932128;28;20111;-65
2021/04/13 08:10:17;;;;;;;6.32;1.50;;;17.80;52.40;;;;;;4942126;28;20028;-63
2021/04/13 08:12:54;;;;;;;7.18;1.48;;;19.30;48.90;;;;;;4929551;28;20510;-63
2021/04/13 08:15:42;;;;;;;7.13;1.70;;;18.40;46.00;;;;;;4931830;28;20039;-65
2021/04/13 08:18:14;;;;;;;6.85;1.42;;;17.40;44.70;;;;;;4931732;28;20028;-64
2021/04/13 08:20:43;;;;;;;8.73;1.77;;;16.60;46.40;;;;;;4931515;28;20389;-63
2021/04/13 08:23:13;;;;;;;8.70;1.85;;;15.50;45.20;;;;;;4931113;29;20032;-64
2021/04/13 08:25:48;;;;;;;10.90;1.70;;;14.50;46.50;;;;;;4930734;28;20051;-64
2021/04/13 08:28:28;;;;;;;7.78;1.70;;;14.00;48.90;;;;;;4932370;28;20040;-63
2021/04/13 08:32:49;;;;;;;;;;;15.40;53.60;;;;;;4932020;28;20048;-63
2021/04/13 08:33:48;;;;;;;7.30;2.00;;;17.30;53.00;;;;;;4931474;28;20290;-64
2021/04/13 08:36:28;;;;;;;8.18;1.73;;;17.70;47.60;;;;;;4929345;29;20094;-63
2021/04/13 08:39:03;;;;;;;9.65;1.90;;;17.10;43.90;;;;;;4930471;28;20035;-64
2021/04/13 08:41:57;;;;;;;8.30;1.67;;;16.10;45.30;;;;;;4930055;29;20044;-65
2021/04/13 08:44:40;;;;;;;9.10;1.88;;;16.40;48.70;;;;;;4930094;28;20035;-64
2021/04/13 08:47:29;;;;;;;9.18;1.83;;;18.70;50.20;;;;;;4955199;23;20036;-69
2021/04/13 08:50:00;;;;;;;9.73;1.75;;;18.70;44.20;;;;;;5000315;28;20052;-67
2021/04/13 08:52:35;;;;;;;12.38;2.75;;;19.10;44.20;;;;;;4948045;28;20046;-66
2021/04/13 08:55:10;;;;;;;10.90;2.00;;;18.90;41.40;;;;;;4950377;28;20035;-68
2021/04/13 08:57:44;;;;;;;8.50;2.17;;;17.60;41.60;;;;;;4944166;28;20044;-61
2021/04/13 09:00:30;;;;;;;9.85;2.15;;;16.80;42.00;;;;;;4931033;28;20052;-62
2021/04/13 09:03:03;;;;;;;10.55;2.25;;;16.70;43.60;;;;;;4929568;28;20032;-62
2021/04/13 09:05:31;;;;;;;11.10;2.03;;;17.00;45.10;;;;;;4931203;28;20040;-62
2021/04/13 09:08:13;;;;;;;11.82;2.22;;;19.30;47.10;;;;;;4929908;28;20074;-63
2021/04/13 09:11:08;;;;;;;13.50;2.42;;;19.80;40.50;;;;;;4931001;28;20094;-63
2021/04/13 09:13:37;;;;;;;8.57;2.08;;;17.90;38.60;;;;;;4969729;28;20488;-61
2021/04/13 09:16:05;;;;;;;8.63;2.03;;;16.00;40.00;;;;;;4930265;28;20040;-60
2021/04/13 09:18:39;;;;;;;9.68;1.83;;;14.70;41.80;;;;;;4930859;28;20381;-60
2021/04/13 09:21:29;;;;;;;11.05;1.95;;;13.70;43.60;;;;;;4930684;28;20109;-61
2021/04/13 09:24:04;;;;;;;7.45;1.52;;;12.80;45.30;;;;;;4930304;28;20122;-63
2021/04/13 09:26:42;;;;;;;10.18;2.10;;;12.10;46.20;;;;;;4930944;28;20048;-63
2021/04/13 09:29:31;;;;;;;11.50;1.75;;;11.60;47.80;;;;;;4930958;28;20035;-63
2021/04/13 09:31:58;;;;;;;10.10;2.70;;;11.40;49.30;;;;;;4939698;28;20044;-63
2021/04/13 09:34:40;;;;;;;10.43;2.47;;;11.90;51.10;;;;;;4930908;28;20034;-61
2021/04/13 09:37:31;;;;;;;8.38;1.67;;;15.20;55.00;;;;;;4930679;28;20234;-61
2021/04/13 09:40:03;;;;;;;9.93;2.00;;;19.80;51.00;;;;;;4929258;28;20515;-61
2021/04/13 09:42:52;;;;;;;8.75;1.83;;;23.20;46.20;;;;;;4929579;28;20109;-62
2021/04/13 09:45:38;;;;;;;8.15;1.85;;;25.60;40.20;;;;;;4929360;28;20496;-62
2021/04/13 09:48:19;;;;;;;9.65;2.13;;;26.30;34.70;;;;;;4930590;28;20305;-69
2021/04/13 09:50:51;;;;;;;11.20;2.08;;;27.50;34.20;;;;;;4930077;28;20039;-68
2021/04/13 09:54:11;;;;;;;8.88;2.00;;;28.80;32.50;;;;;;4931019;28;20055;-69
2021/04/13 09:57:04;;;;;;;11.32;2.70;;;30.20;31.30;;;;;;4909141;28;20409;-67
2021/04/13 10:00:04;;;;;;;8.77;2.20;;;27.60;27.20;;;;;;4908595;28;20063;-66
2021/04/13 10:03:16;;;;;;;10.75;2.50;;;22.70;27.60;;;;;;4909287;28;20081;-67
2021/04/13 10:05:47;;;;;;;9.90;2.10;;;21.50;32.50;;;;;;4930233;28;20036;-67
2021/04/13 10:08:26;;;;;;;8.20;2.08;;;24.40;32.50;;;;;;4930607;28;20070;-67
2021/04/13 10:11:08;;;;;;;8.32;1.70;;;26.50;29.70;;;;;;4929671;28;20036;-68
2021/04/13 10:14:13;;;;;;;10.18;1.80;;;28.60;29.00;;;;;;4930574;28;20039;-68
2021/04/13 10:17:15;;;;;;;6.88;1.48;;;30.80;28.00;;;;;;4930060;28;20047;-68
2021/04/13 10:20:09;;;;;;;9.00;2.13;;;31.40;26.30;;;;;;4930291;28;20502;-69
2021/04/13 10:23:11;;;;;;;9.30;1.90;;;32.30;25.80;;;;;;4929916;28;20047;-69
2021/04/13 10:26:01;;;;;;;9.52;1.90;;;32.20;24.20;;;;;;4928542;28;20039;-65
2021/04/13 10:28:45;;;;;;;7.88;1.80;;;30.30;23.30;;;;;;4930511;28;20360;-65
2021/04/13 10:31:42;;;;;;;8.20;2.00;;;29.30;23.80;;;;;;4929668;28;20032;-65
2021/04/13 10:34:43;;;;;;;9.30;2.00;;;27.00;22.60;;;;;;4929883;28;20115;-66
2021/04/13 10:37:49;;;;;;;7.88;1.80;;;23.90;23.90;;;;;;4932857;28;20039;-62
2021/04/13 10:40:24;;;;;;;9.77;2.05;;;24.60;26.10;;;;;;4931649;28;20493;-62
2021/04/13 10:43:12;;;;;;;9.93;1.73;;;26.70;25.90;;;;;;4932212;28;20407;-61
2021/04/13 10:45:48;;;;;;;8.02;1.70;;;27.40;24.90;;;;;;4933594;28;20066;-62
2021/04/13 10:48:41;;;;;;;8.98;1.98;;;28.20;25.10;;;;;;4933444;28;20044;-66
2021/04/13 10:51:36;;;;;;;7.63;1.60;;;29.30;24.30;;;;;;4931282;28;20062;-66
2021/04/13 10:54:23;;;;;;;8.90;2.00;;;29.40;23.90;;;;;;4931857;28;24107;-62
2021/04/13 10:57:04;;;;;;;9.63;1.95;;;29.10;23.40;;;;;;4933779;28;20039;-62
2021/04/13 11:00:02;;;;;;;8.13;1.83;;;28.70;23.70;;;;;;4929786;28;20067;-63
2021/04/13 11:03:01;;;;;;;6.93;1.60;;;29.00;23.70;;;;;;4929449;28;20039;-63
2021/04/13 11:05:42;;;;;;;6.10;1.38;;;28.90;23.00;;;;;;4933419;28;20065;-63
2021/04/13 11:08:32;;;;;;;7.35;1.40;;;26.20;22.40;;;;;;4936300;28;20065;-62
2021/04/13 11:11:18;;;;;;;6.60;1.33;;;24.50;24.10;;;;;;4940778;28;20127;-68
2021/04/13 11:14:03;;;;;;;4.72;1.13;;;24.70;24.50;;;;;;4938458;28;20047;-67
2021/04/13 11:16:56;;;;;;;6.60;1.55;;;26.40;23.80;;;;;;4941282;28;20051;-67
2021/04/13 11:19:45;;;;;;;7.90;1.48;;;27.70;23.50;;;;;;4940040;28;20507;-68
2021/04/13 11:22:54;;;;;;;6.10;1.65;;;27.80;22.90;;;;;;4938714;28;20039;-68
2021/04/13 11:25:44;;;;;;;8.15;1.80;;;27.40;22.60;;;;;;4937605;28;20036;-61
2021/04/13 11:28:38;;;;;;;9.02;1.63;;;25.70;22.10;;;;;;4940168;28;20032;-65
2021/04/13 11:31:14;;;;;;;9.25;1.60;;;25.20;23.50;;;;;;4938301;28;20066;-62
2021/04/13 11:34:17;;;;;;;10.68;2.10;;;26.30;24.20;;;;;;4938248;28;20078;-62
2021/04/13 11:36:48;;;;;;;8.07;1.80;;;26.90;23.30;;;;;;4937051;28;20094;-62
2021/04/13 11:39:38;;;;;;;7.82;1.70;;;27.00;23.40;;;;;;4941542;28;20048;-62
2021/04/13 11:42:26;;;;;;;8.93;1.95;;;26.20;22.80;;;;;;4944287;28;20121;-61
2021/04/13 11:45:04;;;;;;;9.23;1.95;;;23.80;22.50;;;;;;4943354;28;20589;-61
2021/04/13 11:47:55;;;;;;;8.77;1.63;;;21.10;23.60;;;;;;4934369;28;20073;-60
2021/04/13 11:50:37;;;;;;;8.60;1.35;;;19.30;25.50;;;;;;4939560;28;20384;-61
2021/04/13 11:53:06;;;;;;;6.70;1.58;;;20.70;28.20;;;;;;4951892;28;20039;-61
2021/04/13 11:55:38;;;;;;;8.45;1.63;;;21.80;26.70;;;;;;4952160;28;20110;-61
2021/04/13 11:58:14;;;;;;;6.93;1.30;;;22.00;26.20;;;;;;4945670;28;20062;-61
2021/04/13 12:00:41;;;;;;;6.45;1.58;;;22.40;25.60;;;;;;4945865;28;20118;-61
2021/04/13 12:03:31;;;;;;;8.43;1.65;;;21.40;24.70;;;;;;4974945;28;20109;-63
2021/04/13 12:06:00;;;;;;;6.50;1.55;;;21.60;26.00;;;;;;4931182;28;20423;-65
2021/04/13 12:08:30;;;;;;;9.00;1.60;;;22.80;26.40;;;;;;4932764;28;20036;-63
2021/04/13 12:11:04;;;;;;;6.45;1.38;;;23.70;25.60;;;;;;4914417;28;20050;-63
2021/04/13 12:13:43;;;;;;;9.85;2.10;;;23.50;25.40;;;;;;4932888;28;20055;-63
2021/04/13 12:16:12;;;;;;;6.35;1.48;;;22.90;25.70;;;;;;4932553;28;20047;-63
2021/04/13 12:18:39;;;;;;;10.93;1.60;;;22.10;25.70;;;;;;4932709;28;20144;-63
2021/04/13 12:21:25;;;;;;;9.15;1.60;;;21.90;26.60;;;;;;4931320;28;20050;-63
2021/04/13 12:23:54;;;;;;;7.30;1.70;;;21.90;27.00;;;;;;4932828;28;20036;-63
2021/04/13 12:26:43;;;;;;;7.07;1.50;;;21.80;27.00;;;;;;4932024;28;20047;-64
2021/04/13 12:29:29;;;;;;;8.00;1.38;;;21.70;26.80;;;;;;4946753;28;20055;-60
2021/04/13 12:32:13;;;;;;;8.27;1.40;;;21.60;26.70;;;;;;4950924;28;20039;-63
2021/04/13 12:35:00;;;;;;;6.40;1.40;;;20.80;26.60;;;;;;4949499;28;20039;-63
2021/04/13 12:37:45;;;;;;;7.93;1.98;;;20.00;27.50;;;;;;4949017;28;20387;-63
2021/04/13 12:40:20;;;;;;;8.70;1.95;;;20.20;28.60;;;;;;4949275;28;20039;-63
2021/04/13 12:43:06;;;;;;;6.18;1.30;;;21.60;29.00;;;;;;4948934;28;20390;-63
2021/04/13 12:45:45;;;;;;;9.13;1.70;;;23.10;28.60;;;;;;4949254;28;20043;-64
2021/04/13 12:48:22;;;;;;;6.97;1.30;;;23.80;27.00;;;;;;4949955;28;20688;-61
2021/04/13 12:51:06;;;;;;;8.13;1.50;;;22.60;25.90;;;;;;4950197;28;20039;-63
2021/04/13 12:53:32;;;;;;;7.72;1.52;;;20.90;26.30;;;;;;4951062;28;20039;-62
2021/04/13 12:56:12;;;;;;;7.28;1.38;;;19.60;27.10;;;;;;4949040;28;20065;-63
2021/04/13 12:58:41;;;;;;;7.30;1.65;;;19.40;28.60;;;;;;4948862;28;20114;-62
2021/04/13 13:01:15;;;;;;;7.55;1.70;;;19.60;28.60;;;;;;4950372;28;20379;-63
2021/04/13 13:03:41;;;;;;;5.25;1.40;;;19.20;27.80;;;;;;4951392;28;20089;-63
2021/04/13 13:06:35;;;;;;;8.55;1.70;;;18.50;28.00;;;;;;4950743;28;20487;-62
2021/04/13 13:09:08;;;;;;;9.25;1.40;;;17.80;28.30;;;;;;4938036;28;20040;-63
2021/04/13 13:11:39;;;;;;;6.90;1.30;;;17.60;29.20;;;;;;4931600;28;20122;-62
2021/04/13 13:14:07;;;;;;;12.68;1.90;;;17.30;29.40;;;;;;4931479;28;20032;-63
2021/04/13 13:16:33;;;;;;;13.05;2.15;;;16.70;29.10;;;;;;4930332;28;20031;-62
2021/04/13 13:18:58;;;;;;;7.35;1.45;;;16.70;31.40;;;;;;4930340;28;20408;-61
2021/04/13 13:21:29;;;;;;;6.72;1.25;;;17.40;32.40;;;;;;4930823;28;20051;-62
2021/04/13 13:24:14;;;;;;;7.10;1.30;;;18.50;32.50;;;;;;4931511;28;20047;-62
2021/04/13 13:26:40;;;;;;;6.57;1.27;;;18.80;30.00;;;;;;4931503;28;20115;-61
2021/04/13 13:29:05;;;;;;;4.72;0.98;;;18.40;29.40;;;;;;4931482;28;20119;-62
2021/04/13 13:31:33;;;;;;;5.07;1.08;;;18.00;29.70;;;;;;4930653;28;20094;-62
2021/04/13 13:34:30;;;;;;;5.80;1.15;;;17.80;29.90;;;;;;4931620;28;20031;-62
2021/04/13 13:36:56;;;;;;;6.32;1.42;;;17.50;30.00;;;;;;4933362;28;20040;-62
2021/04/13 13:39:29;;;;;;;6.97;1.40;;;16.70;29.60;;;;;;4929751;28;20086;-62
2021/04/13 13:41:59;;;;;;;6.43;1.20;;;16.10;30.10;;;;;;4930566;28;20048;-59
2021/04/13 13:44:32;;;;;;;;;;;15.80;31.20;;;;;;4930876;28;20500;-59